Lorane, Indiana
Current Conditions -  °F | °C
As of 6:54 AM on Thursday 29 Jan 2015 (Local Time) from KFWA Reporting Station
Broken Clouds Broken Clouds  
Wind Chill: 27°   Ceiling: 23000
Heat Index: 35°   Visibility: 10mi
Dew Point: 28°   Wind: 10mph
Humidity: 76%   Direction: 180°S
Pressure: 29.76"   Gusts: NA
Location:  41.1479°N, 85.4772°W
Report Text: KFWA 291154Z 18009KT 10SM SCT085 BKN230 02/M02 A2976 RMK AO2 SLP087 4/002 60001 70001 I6000 T00171022 10022 21011 56037
Loading
Personal Weather Stations






























Interactive Weather Map New forecast layout! Learn more

10-Day Weather Forecast

Advertisements
Track Severe Weather on mobile